Tenn Ridge, Tennessee
Current Conditions -  °F | °C
As of 9:58 AM on Saturday 25 Oct 2014 (Local Time) from KHOP Reporting Station
Scattered Clouds Scattered Clouds  
Wind Chill: 65°   Ceiling: Unl
Heat Index: 65°   Visibility: 10mi
Dew Point: 58°   Wind: 8mph
Humidity: 78%   Direction: 220°SW
Pressure: 30.06"   Gusts: NA
Location:  36.3449°N, 87.805°W
Report Text: KHOP 251458Z AUTO 22007KT 10SM SCT046 19/15 A3006 RMK AO2 SLP180 T01850147 58002
Loading
Personal Weather Stations






























Interactive Weather Map
Tropical Storm Tracking
New forecast layout! Learn more

10-Day Weather Forecast

Advertisements
Track Severe Weather on mobile